createdAt,value
2024-04-16T00:00:22.350Z,3.19
2024-04-16T00:02:52.395Z,3.17
2024-04-16T00:05:21.277Z,3.11
2024-04-16T00:07:51.349Z,3.06
2024-04-16T00:10:19.410Z,2.97
2024-04-16T00:12:52.211Z,2.90
2024-04-16T00:15:38.352Z,2.85
2024-04-16T00:18:09.244Z,2.79
2024-04-16T00:20:37.372Z,2.84
2024-04-16T00:23:08.218Z,2.84
2024-04-16T00:25:36.429Z,2.83
2024-04-16T00:28:06.331Z,2.82
2024-04-16T00:30:37.364Z,2.86
2024-04-16T00:33:08.285Z,2.95
2024-04-16T00:35:36.934Z,2.99
2024-04-16T00:38:07.122Z,3.02
2024-04-16T00:40:35.367Z,3.07
2024-04-16T00:43:19.021Z,3.03
2024-04-16T00:45:51.469Z,2.98
2024-04-16T00:48:25.472Z,3.10
2024-04-16T00:50:55.508Z,3.09
2024-04-16T00:53:29.524Z,3.26
2024-04-16T00:55:58.459Z,3.28
2024-04-16T00:58:30.345Z,3.53
2024-04-16T01:01:02.393Z,3.49
2024-04-16T01:03:32.443Z,3.47
2024-04-16T01:06:02.299Z,3.65
2024-04-16T01:08:32.480Z,3.82
2024-04-16T01:11:01.311Z,3.85
2024-04-16T01:13:31.775Z,4.00
2024-04-16T01:16:03.439Z,3.90
2024-04-16T01:18:33.938Z,3.82
2024-04-16T01:21:02.291Z,3.81
2024-04-16T01:23:35.101Z,3.76
2024-04-16T01:26:04.328Z,3.77
2024-04-16T01:28:34.870Z,3.90
2024-04-16T01:31:03.310Z,3.83
2024-04-16T01:33:33.557Z,3.77
2024-04-16T01:36:01.319Z,3.79
2024-04-16T01:38:31.113Z,3.75
2024-04-16T01:41:03.328Z,3.73
2024-04-16T01:43:33.107Z,3.93
2024-04-16T01:46:02.382Z,3.87
2024-04-16T01:48:32.348Z,3.93
2024-04-16T01:51:01.330Z,3.87
2024-04-16T01:53:31.113Z,3.83
2024-04-16T01:56:03.334Z,3.83
2024-04-16T01:58:33.155Z,3.70
2024-04-16T02:01:02.362Z,3.81
2024-04-16T02:03:32.361Z,3.84
2024-04-16T02:06:06.837Z,3.86
2024-04-16T02:08:37.341Z,3.96
2024-04-16T02:11:08.486Z,4.00
2024-04-16T02:13:39.405Z,4.04
2024-04-16T02:16:10.262Z,4.07
2024-04-16T02:18:40.448Z,4.10
2024-04-16T02:21:08.817Z,4.15
2024-04-16T02:23:39.379Z,4.07
2024-04-16T02:26:10.497Z,4.04
2024-04-16T02:28:40.389Z,4.03
2024-04-16T02:31:09.025Z,3.97
2024-04-16T02:33:40.379Z,4.03
2024-04-16T02:36:08.973Z,4.01
2024-04-16T02:38:39.383Z,4.05
2024-04-16T02:41:10.568Z,4.08
2024-04-16T02:43:40.469Z,4.08
2024-04-16T02:46:08.891Z,4.03
2024-04-16T02:48:39.407Z,4.04
2024-04-16T02:51:13.174Z,4.02
2024-04-16T02:53:43.410Z,4.15
2024-04-16T02:56:14.693Z,4.24
2024-04-16T02:58:48.411Z,4.25
2024-04-16T03:01:16.949Z,4.13
2024-04-16T03:03:48.439Z,4.17
2024-04-16T03:06:16.903Z,4.13
2024-04-16T03:08:47.406Z,4.11
2024-04-16T03:11:18.708Z,4.14
2024-04-16T03:13:49.226Z,4.24
2024-04-16T03:16:18.473Z,4.27
2024-04-16T03:18:49.266Z,4.27
2024-04-16T03:21:18.435Z,4.33
2024-04-16T03:23:48.222Z,4.41
2024-04-16T03:26:20.434Z,4.44
2024-04-16T03:28:50.217Z,4.46
2024-04-16T03:31:19.477Z,4.42
2024-04-16T03:33:49.236Z,4.40
2024-04-16T03:36:18.514Z,4.48
2024-04-16T03:38:48.207Z,4.51
2024-04-16T03:41:23.443Z,4.49
2024-04-16T03:43:54.378Z,4.42
2024-04-16T03:46:27.497Z,4.50
2024-04-16T03:48:54.593Z,4.47
2024-04-16T03:51:26.467Z,4.43
2024-04-16T03:53:53.613Z,4.42
2024-04-16T03:56:27.505Z,4.40
2024-04-16T03:59:06.265Z,4.34
2024-04-16T04:01:38.555Z,4.30
2024-04-16T04:04:05.712Z,4.32
2024-04-16T04:06:37.482Z,4.27
2024-04-16T04:09:05.622Z,4.34
2024-04-16T04:11:39.491Z,4.41
2024-04-16T04:14:06.633Z,4.39
2024-04-16T04:16:38.599Z,4.36
2024-04-16T04:19:08.564Z,4.37
2024-04-16T04:21:37.524Z,4.32
2024-04-16T04:24:15.746Z,4.29
2024-04-16T04:26:53.629Z,4.25
2024-04-16T04:29:24.522Z,4.23
2024-04-16T04:31:52.671Z,4.18
2024-04-16T04:34:23.604Z,4.16
2024-04-16T04:36:51.635Z,4.13
2024-04-16T04:39:22.515Z,4.11
2024-04-16T04:41:53.712Z,4.07
2024-04-16T04:44:24.518Z,4.05
2024-04-16T04:46:52.664Z,4.05
2024-04-16T04:49:23.778Z,4.06
2024-04-16T04:51:51.686Z,4.07
2024-04-16T04:54:22.563Z,4.11
2024-04-16T04:56:53.666Z,4.16
2024-04-16T04:59:24.517Z,4.18
2024-04-16T05:01:52.783Z,4.20
2024-04-16T05:04:23.595Z,4.28
2024-04-16T05:06:51.670Z,4.27
2024-04-16T05:09:22.556Z,4.25
2024-04-16T05:11:53.704Z,4.21
2024-04-16T05:14:25.560Z,4.18
2024-04-16T05:16:53.695Z,4.21
2024-04-16T05:19:23.619Z,4.25
2024-04-16T05:21:52.069Z,4.28
2024-04-16T05:24:22.561Z,4.28
2024-04-16T05:26:53.708Z,4.28
2024-04-16T05:29:23.557Z,4.33
2024-04-16T05:31:52.063Z,4.27
2024-04-16T05:34:22.428Z,4.27
2024-04-16T05:36:51.571Z,4.37
2024-04-16T05:39:21.364Z,4.36
2024-04-16T05:41:49.592Z,4.46
2024-04-16T05:44:22.347Z,4.52
2024-04-16T05:46:51.646Z,4.66
2024-04-16T05:49:21.946Z,4.67
2024-04-16T05:51:50.607Z,4.73
2024-04-16T05:54:20.686Z,4.81
2024-04-16T05:56:49.605Z,4.93
2024-04-16T05:59:23.104Z,4.98
2024-04-16T06:01:51.658Z,5.06
2024-04-16T06:04:21.743Z,5.24
2024-04-16T06:06:49.747Z,5.39
2024-04-16T06:09:19.653Z,5.38
2024-04-16T06:11:48.264Z,5.25
2024-04-16T06:14:18.630Z,5.16
2024-04-16T06:16:49.831Z,5.16
2024-04-16T06:19:19.469Z,5.20
2024-04-16T06:21:48.637Z,5.18
2024-04-16T06:24:18.383Z,5.28
2024-04-16T06:26:47.629Z,5.25
2024-04-16T06:29:17.649Z,5.25
2024-04-16T06:31:46.803Z,5.31
2024-04-16T06:34:19.646Z,5.21
2024-04-16T06:36:48.635Z,5.14
2024-04-16T06:39:18.418Z,5.09
2024-04-16T06:41:47.679Z,5.02
2024-04-16T06:44:17.450Z,4.96
2024-04-16T06:46:46.741Z,4.94
2024-04-16T06:49:20.442Z,4.92
2024-04-16T06:51:49.714Z,4.93
2024-04-16T06:54:19.457Z,4.92
2024-04-16T06:56:48.153Z,4.95
2024-04-16T06:59:18.716Z,4.88
2024-04-16T07:01:47.177Z,4.81
2024-04-16T07:04:19.757Z,4.82
2024-04-16T07:06:48.705Z,4.76
2024-04-16T07:09:18.663Z,4.71
2024-04-16T07:11:47.211Z,4.51
2024-04-16T07:14:17.689Z,4.53
2024-04-16T07:16:46.429Z,4.24
2024-04-16T07:19:16.765Z,4.16
2024-04-16T07:21:47.818Z,4.17
2024-04-16T07:24:17.760Z,4.04
2024-04-16T07:26:46.837Z,4.04
2024-04-16T07:29:16.713Z,3.94
2024-04-16T07:31:48.393Z,3.96
2024-04-16T07:34:20.760Z,3.89
2024-04-16T07:36:51.869Z,3.89
2024-04-16T07:39:22.707Z,3.94
2024-04-16T07:41:50.845Z,4.06
2024-04-16T07:44:21.289Z,3.94
2024-04-16T07:46:48.763Z,3.89
2024-04-16T07:49:18.557Z,3.94
2024-04-16T07:51:47.731Z,3.85
2024-04-16T07:54:20.545Z,3.98
2024-04-16T07:56:50.793Z,3.90
2024-04-16T07:59:21.704Z,3.80
2024-04-16T08:01:50.751Z,3.73
2024-04-16T08:04:20.664Z,3.65
2024-04-16T08:06:49.754Z,3.63
2024-04-16T08:09:22.543Z,3.72
2024-04-16T08:11:51.750Z,3.84
2024-04-16T08:14:23.249Z,3.89
2024-04-16T08:16:51.818Z,3.86
2024-04-16T08:19:22.445Z,3.98
2024-04-16T08:21:56.380Z,4.06
2024-04-16T08:24:31.518Z,4.15
2024-04-16T08:27:00.777Z,4.33
2024-04-16T08:29:31.177Z,4.59
2024-04-16T08:31:59.789Z,4.56
2024-04-16T08:34:30.556Z,4.64
2024-04-16T08:36:58.963Z,4.61
2024-04-16T08:39:31.802Z,4.63
2024-04-16T08:42:00.971Z,4.73
2024-04-16T08:44:32.845Z,4.73
2024-04-16T08:47:02.073Z,4.87
2024-04-16T08:49:33.875Z,5.09
2024-04-16T08:52:02.980Z,5.27
2024-04-16T08:54:36.842Z,5.32
2024-04-16T08:57:06.947Z,5.48
2024-04-16T08:59:37.804Z,6.01
2024-04-16T09:02:04.993Z,6.41
2024-04-16T09:04:40.954Z,6.85
2024-04-16T09:07:11.030Z,6.90
2024-04-16T09:09:43.823Z,7.19
2024-04-16T09:12:11.971Z,6.86
2024-04-16T09:14:42.850Z,6.70
2024-04-16T09:17:15.224Z,6.62
2024-04-16T09:19:46.875Z,6.49
2024-04-16T09:22:14.074Z,6.29
2024-04-16T09:24:46.854Z,6.48
2024-04-16T09:27:14.981Z,6.37
2024-04-16T09:29:47.100Z,6.49
2024-04-16T09:32:18.470Z,6.74
2024-04-16T09:34:48.979Z,7.03
2024-04-16T09:37:20.279Z,7.03
2024-04-16T09:39:56.884Z,6.85
2024-04-16T09:42:26.882Z,6.98
2024-04-16T09:44:57.864Z,6.85
2024-04-16T09:47:27.180Z,6.85
2024-04-16T09:50:11.279Z,6.95
2024-04-16T09:52:49.542Z,6.86
2024-04-16T09:55:23.904Z,6.70
2024-04-16T09:57:53.866Z,6.73
2024-04-16T10:00:24.895Z,6.70
2024-04-16T10:02:56.122Z,6.82
2024-04-16T10:05:26.877Z,6.83
2024-04-16T10:07:57.099Z,6.81
2024-04-16T10:10:30.930Z,6.81
2024-04-16T10:12:59.091Z,6.78
2024-04-16T10:15:29.520Z,6.74
2024-04-16T10:17:58.947Z,6.69
2024-04-16T10:20:30.907Z,6.66
2024-04-16T10:22:59.980Z,6.61
2024-04-16T10:25:38.278Z,6.59
2024-04-16T10:28:08.953Z,6.41
2024-04-16T10:30:40.680Z,6.38
2024-04-16T10:33:13.013Z,6.61
2024-04-16T10:35:42.797Z,6.80
2024-04-16T10:38:12.957Z,6.63
2024-04-16T10:40:45.766Z,6.37
2024-04-16T10:43:15.406Z,6.48
2024-04-16T10:45:47.813Z,6.43
2024-04-16T10:48:18.944Z,6.60
2024-04-16T10:50:49.538Z,6.39
2024-04-16T10:53:19.971Z,6.15
2024-04-16T10:55:54.152Z,5.93
2024-04-16T10:58:22.984Z,5.86
2024-04-16T11:00:56.486Z,5.79
2024-04-16T11:03:25.104Z,5.69
2024-04-16T11:05:55.131Z,5.80
2024-04-16T11:08:23.969Z,5.90
2024-04-16T11:10:57.111Z,5.84
2024-04-16T11:13:26.079Z,5.84
2024-04-16T11:15:56.113Z,5.87
2024-04-16T11:18:25.086Z,6.02
2024-04-16T11:20:55.920Z,6.07
2024-04-16T11:23:24.963Z,5.98
2024-04-16T11:25:57.815Z,6.08
2024-04-16T11:28:27.015Z,6.32
2024-04-16T11:30:58.352Z,6.49
2024-04-16T11:33:36.347Z,6.32
2024-04-16T11:36:09.570Z,6.10
2024-04-16T11:38:44.083Z,6.10
2024-04-16T11:41:16.055Z,6.19
2024-04-16T11:43:49.103Z,6.08
2024-04-16T11:46:18.228Z,6.42
2024-04-16T11:48:50.256Z,6.80
2024-04-16T11:51:18.188Z,6.84
2024-04-16T11:53:50.064Z,6.96
2024-04-16T11:56:20.299Z,6.77
2024-04-16T11:58:51.092Z,6.76
2024-04-16T12:01:18.635Z,6.94
2024-04-16T12:03:50.074Z,6.83
2024-04-16T12:06:17.555Z,6.87
2024-04-16T12:08:47.778Z,7.11
2024-04-16T12:11:16.061Z,7.20
2024-04-16T12:13:49.839Z,7.06
2024-04-16T12:16:18.080Z,7.27
2024-04-16T12:18:47.818Z,7.35
2024-04-16T12:21:17.061Z,7.20
2024-04-16T12:23:48.855Z,7.19
2024-04-16T12:26:21.072Z,7.18
2024-04-16T12:28:51.472Z,7.22
2024-04-16T12:31:23.107Z,7.19
2024-04-16T12:33:50.268Z,7.02
2024-04-16T12:36:21.106Z,7.10
2024-04-16T12:38:49.207Z,7.13
2024-04-16T12:41:20.079Z,6.94
2024-04-16T12:43:51.336Z,7.03
2024-04-16T12:46:21.220Z,6.97
2024-04-16T12:48:51.546Z,7.11
2024-04-16T12:51:22.103Z,7.45
2024-04-16T12:53:50.702Z,7.64
2024-04-16T12:56:20.376Z,7.96
2024-04-16T12:58:51.119Z,7.89
2024-04-16T13:01:26.363Z,8.15
2024-04-16T13:03:54.225Z,8.21
2024-04-16T13:06:23.866Z,8.51
2024-04-16T13:08:54.228Z,8.37
2024-04-16T13:11:23.979Z,8.43
2024-04-16T13:13:55.609Z,8.57
2024-04-16T13:16:26.218Z,8.46
2024-04-16T13:18:54.711Z,9.02
2024-04-16T13:21:24.926Z,8.76
2024-04-16T13:23:53.151Z,8.95
2024-04-16T13:26:23.236Z,8.73
2024-04-16T13:28:52.183Z,9.03
2024-04-16T13:31:24.965Z,8.81
2024-04-16T13:33:54.129Z,8.89
2024-04-16T13:36:24.276Z,9.09
2024-04-16T13:38:53.152Z,9.14
2024-04-16T13:41:23.774Z,9.32
2024-04-16T13:43:53.171Z,9.14
2024-04-16T13:46:25.986Z,9.17
2024-04-16T13:48:55.175Z,9.29
2024-04-16T13:51:25.288Z,9.19
2024-04-16T13:53:54.175Z,9.64
2024-04-16T13:56:24.565Z,9.37
2024-04-16T13:58:53.157Z,9.10
2024-04-16T14:01:26.224Z,8.82
2024-04-16T14:03:55.202Z,8.56
2024-04-16T14:06:25.428Z,8.36
2024-04-16T14:08:52.729Z,8.36
2024-04-16T14:11:23.280Z,8.14
2024-04-16T14:13:52.016Z,8.19
2024-04-16T14:16:22.284Z,8.10
2024-04-16T14:18:54.193Z,8.36
2024-04-16T14:21:24.004Z,8.21
2024-04-16T14:23:54.194Z,8.15
2024-04-16T14:26:25.800Z,8.18
2024-04-16T14:28:54.223Z,8.19
2024-04-16T14:31:24.415Z,8.18
2024-04-16T14:33:56.225Z,8.04
2024-04-16T14:36:26.350Z,7.93
2024-04-16T14:38:54.647Z,8.00
2024-04-16T14:41:25.221Z,8.22
2024-04-16T14:43:53.830Z,8.47
2024-04-16T14:46:24.276Z,8.63
2024-04-16T14:48:55.391Z,8.80
2024-04-16T14:51:25.254Z,8.96
2024-04-16T14:53:53.795Z,8.96
2024-04-16T14:56:24.235Z,9.14
2024-04-16T14:58:52.766Z,9.56
2024-04-16T15:01:23.401Z,10.14
2024-04-16T15:03:53.481Z,10.97
2024-04-16T15:06:26.340Z,10.80
2024-04-16T15:08:56.412Z,10.48
2024-04-16T15:11:27.314Z,10.30
2024-04-16T15:13:55.936Z,9.86
2024-04-16T15:16:27.332Z,9.52
2024-04-16T15:18:55.414Z,10.55
2024-04-16T15:21:28.338Z,11.12
2024-04-16T15:23:56.399Z,10.89
2024-04-16T15:26:26.406Z,11.00
2024-04-16T15:28:54.347Z,10.81
2024-04-16T15:31:25.100Z,11.07
2024-04-16T15:33:53.299Z,10.72
2024-04-16T15:36:23.468Z,9.99
2024-04-16T15:38:53.680Z,9.57
2024-04-16T15:41:26.406Z,9.57
2024-04-16T15:43:54.474Z,9.58
2024-04-16T15:46:24.462Z,9.41
2024-04-16T15:48:53.298Z,9.33
2024-04-16T15:51:25.978Z,9.38
2024-04-16T15:53:57.317Z,9.25
2024-04-16T15:56:27.439Z,9.41
2024-04-16T15:58:56.353Z,9.45
2024-04-16T16:01:28.760Z,9.53
2024-04-16T16:03:57.346Z,9.32
2024-04-16T16:06:27.686Z,9.28
2024-04-16T16:08:59.314Z,9.25
2024-04-16T16:11:29.484Z,9.23
2024-04-16T16:13:58.360Z,9.22
2024-04-16T16:16:28.490Z,8.91
2024-04-16T16:18:56.375Z,8.98
2024-04-16T16:21:26.124Z,8.85
2024-04-16T16:24:00.764Z,8.86
2024-04-16T16:26:32.266Z,8.87
2024-04-16T16:29:01.352Z,8.81
2024-04-16T16:31:36.215Z,8.74
2024-04-16T16:34:10.435Z,8.76
2024-04-16T16:36:41.728Z,8.69
2024-04-16T16:39:13.366Z,8.73
2024-04-16T16:41:43.743Z,8.73
2024-04-16T16:44:12.386Z,8.73
2024-04-16T16:46:42.624Z,8.68
2024-04-16T16:49:11.364Z,8.70
2024-04-16T16:51:41.566Z,8.78
2024-04-16T16:54:13.384Z,8.78
2024-04-16T16:56:43.532Z,8.70
2024-04-16T16:59:12.399Z,8.83
2024-04-16T17:01:42.564Z,8.77
2024-04-16T17:04:11.432Z,8.74
2024-04-16T17:06:42.889Z,8.73
2024-04-16T17:09:14.412Z,8.77
2024-04-16T17:11:44.565Z,8.61
2024-04-16T17:14:12.538Z,8.43
2024-04-16T17:16:43.494Z,8.35
2024-04-16T17:19:11.550Z,8.26
2024-04-16T17:21:42.400Z,8.23
2024-04-16T17:24:14.694Z,8.16
2024-04-16T17:26:46.433Z,8.10
2024-04-16T17:29:14.582Z,8.09
2024-04-16T17:31:45.524Z,8.08
2024-04-16T17:34:13.698Z,8.02
2024-04-16T17:36:44.456Z,8.07
2024-04-16T17:39:17.706Z,8.10
2024-04-16T17:41:48.466Z,8.09
2024-04-16T17:44:16.934Z,8.03
2024-04-16T17:46:48.540Z,7.95
2024-04-16T17:49:17.029Z,7.87
2024-04-16T17:51:48.484Z,7.76
2024-04-16T17:54:19.575Z,7.69
2024-04-16T17:56:50.468Z,7.62
2024-04-16T17:59:20.555Z,7.57
2024-04-16T18:01:50.569Z,7.54
2024-04-16T18:04:19.124Z,7.46
2024-04-16T18:06:49.483Z,7.34
2024-04-16T18:09:20.688Z,7.27
2024-04-16T18:11:50.540Z,7.24
2024-04-16T18:14:19.150Z,7.10
2024-04-16T18:16:49.471Z,7.10
2024-04-16T18:19:18.499Z,7.11
2024-04-16T18:21:48.278Z,7.16
2024-04-16T18:24:17.488Z,7.16
2024-04-16T18:26:52.649Z,7.17
2024-04-16T18:29:21.505Z,7.20
2024-04-16T18:31:51.326Z,7.22
2024-04-16T18:34:20.548Z,7.21
2024-04-16T18:36:50.277Z,7.23
2024-04-16T18:39:19.538Z,7.22
2024-04-16T18:41:53.812Z,7.19
2024-04-16T18:44:22.639Z,7.20
2024-04-16T18:46:53.592Z,7.20
2024-04-16T18:49:24.695Z,7.20
2024-04-16T18:51:55.528Z,7.17
2024-04-16T18:54:28.418Z,7.13
2024-04-16T18:57:04.880Z,7.15
2024-04-16T18:59:33.608Z,7.11
2024-04-16T19:02:04.459Z,7.15
2024-04-16T19:04:35.722Z,7.18
2024-04-16T19:07:06.504Z,7.24
2024-04-16T19:09:35.672Z,7.28
2024-04-16T19:12:09.528Z,7.28
2024-04-16T19:14:42.596Z,7.23
2024-04-16T19:17:14.058Z,7.20
2024-04-16T19:19:43.756Z,7.20
2024-04-16T19:22:16.001Z,6.97
2024-04-16T19:24:44.207Z,6.95
2024-04-16T19:27:17.704Z,6.96
2024-04-16T19:29:46.241Z,6.87
2024-04-16T19:32:17.747Z,6.86
2024-04-16T19:34:46.920Z,6.77
2024-04-16T19:37:18.740Z,6.68
2024-04-16T19:39:47.538Z,6.70
2024-04-16T19:42:20.704Z,6.58
2024-04-16T19:44:49.360Z,6.54
2024-04-16T19:47:19.707Z,6.52
2024-04-16T19:49:48.714Z,6.28
2024-04-16T19:52:23.092Z,6.29
2024-04-16T19:54:51.847Z,6.21
2024-04-16T19:57:24.626Z,6.07
2024-04-16T19:59:53.728Z,6.10
2024-04-16T20:02:25.653Z,5.81
2024-04-16T20:04:54.596Z,5.86
2024-04-16T20:07:24.705Z,6.16
2024-04-16T20:09:54.398Z,6.15
2024-04-16T20:12:28.688Z,6.09
2024-04-16T20:14:57.555Z,6.19
2024-04-16T20:17:27.693Z,6.28
2024-04-16T20:19:57.221Z,6.28
2024-04-16T20:22:30.862Z,6.29
2024-04-16T20:24:59.860Z,6.32
2024-04-16T20:27:33.698Z,6.30
2024-04-16T20:30:01.938Z,6.37
2024-04-16T20:32:31.971Z,6.39
2024-04-16T20:35:02.789Z,6.41
2024-04-16T20:37:35.411Z,6.44
2024-04-16T20:40:05.198Z,6.46
2024-04-16T20:42:38.743Z,6.46
2024-04-16T20:45:08.042Z,6.44
2024-04-16T20:47:38.833Z,6.51
2024-04-16T20:50:08.059Z,6.44
2024-04-16T20:52:38.576Z,6.46
2024-04-16T20:55:07.760Z,6.42
2024-04-16T20:57:40.543Z,6.36
2024-04-16T21:00:10.774Z,6.34
2024-04-16T21:02:41.638Z,6.36
2024-04-16T21:05:10.819Z,6.40
2024-04-16T21:07:41.556Z,6.43
2024-04-16T21:10:09.759Z,6.42
2024-04-16T21:12:42.774Z,6.48
2024-04-16T21:15:11.817Z,6.43
2024-04-16T21:17:42.793Z,6.42
2024-04-16T21:20:11.743Z,6.43
2024-04-16T21:22:42.112Z,6.45
2024-04-16T21:25:10.727Z,6.45
2024-04-16T21:27:44.644Z,6.28
2024-04-16T21:30:13.771Z,5.97
2024-04-16T21:32:44.058Z,5.98
2024-04-16T21:35:11.918Z,5.96
2024-04-16T21:37:41.802Z,5.79
2024-04-16T21:40:10.436Z,5.77
2024-04-16T21:42:41.773Z,5.60
2024-04-16T21:45:15.758Z,5.49
2024-04-16T21:47:45.636Z,5.53
2024-04-16T21:50:15.837Z,5.46
2024-04-16T21:52:45.647Z,5.58
2024-04-16T21:55:14.874Z,5.52
2024-04-16T21:57:44.581Z,5.46
2024-04-16T22:00:16.802Z,5.38
2024-04-16T22:02:46.660Z,5.32
2024-04-16T22:05:15.778Z,5.27
2024-04-16T22:07:49.098Z,5.29
2024-04-16T22:10:18.152Z,5.30
2024-04-16T22:12:48.818Z,5.21
2024-04-16T22:15:20.073Z,5.10
2024-04-16T22:17:50.894Z,4.97
2024-04-16T22:20:21.170Z,5.06
2024-04-16T22:22:51.843Z,5.02
2024-04-16T22:25:23.812Z,4.99
2024-04-16T22:27:53.922Z,5.09
2024-04-16T22:30:25.008Z,4.95
2024-04-16T22:32:55.937Z,5.03
2024-04-16T22:35:24.345Z,4.91
2024-04-16T22:37:55.912Z,4.82
2024-04-16T22:40:24.424Z,4.80
2024-04-16T22:42:54.858Z,4.77
2024-04-16T22:45:29.889Z,4.83
2024-04-16T22:47:58.973Z,4.75
2024-04-16T22:50:32.291Z,4.66
2024-04-16T22:53:01.854Z,4.64
2024-04-16T22:55:33.080Z,4.65
2024-04-16T22:58:02.134Z,4.72
2024-04-16T23:00:36.179Z,4.69
2024-04-16T23:03:04.954Z,4.63
2024-04-16T23:05:36.397Z,4.62
2024-04-16T23:08:04.889Z,4.61
2024-04-16T23:10:39.031Z,4.59
2024-04-16T23:13:07.959Z,4.57
2024-04-16T23:15:41.779Z,4.57
2024-04-16T23:18:10.945Z,4.60
2024-04-16T23:20:42.257Z,4.46
2024-04-16T23:23:10.897Z,4.44
2024-04-16T23:25:45.122Z,4.40
2024-04-16T23:28:13.893Z,4.52
2024-04-16T23:30:46.989Z,4.48
2024-04-16T23:33:16.103Z,4.43
2024-04-16T23:35:47.277Z,4.41
2024-04-16T23:38:15.047Z,4.38
2024-04-16T23:40:49.297Z,4.27
2024-04-16T23:43:17.113Z,4.26
2024-04-16T23:45:49.884Z,4.19
2024-04-16T23:48:18.568Z,4.04
2024-04-16T23:50:48.443Z,4.07
2024-04-16T23:53:23.936Z,3.95
2024-04-16T23:55:53.679Z,3.97
2024-04-16T23:58:22.124Z,3.91
